Time;durP1;ratioP1;P1;durP2;ratioP2;P2;SDS_P1;SDS_P2;PMS_P1;PMS_P2;Temp;Humidity;BMP_temperature;BMP_pressure;BME280_temperature;BME280_humidity;BME280_pressure;Samples;Min_cycle;Max_cycle;Signal;HPM_P1;HPM_P2
2023/01/14 00:01:15;;;;;;;26.58;12.25;;;;;;;4.14;100.00;100919.56;4918189;29;20559;-83
2023/01/14 00:03:41;;;;;;;25.48;12.13;;;;;;;4.25;100.00;100916.13;4916850;29;20091;-85
2023/01/14 00:06:07;;;;;;;28.83;13.68;;;;;;;4.27;100.00;100915.09;4918465;29;20127;-83
2023/01/14 00:08:33;;;;;;;26.02;12.57;;;;;;;4.36;100.00;100921.44;4917976;29;20047;-85
2023/01/14 00:11:05;;;;;;;28.33;12.55;;;;;;;4.48;100.00;100920.53;4918019;29;20139;-86
2023/01/14 00:13:35;;;;;;;21.50;10.75;;;;;;;4.59;100.00;100913.56;4901007;29;20036;-85
2023/01/14 00:16:02;;;;;;;25.75;12.10;;;;;;;4.58;100.00;100909.25;4917522;29;20043;-83
2023/01/14 00:18:29;;;;;;;23.05;12.35;;;;;;;4.52;100.00;100906.25;4917494;29;20036;-83
2023/01/14 00:21:00;;;;;;;24.70;11.45;;;;;;;4.37;100.00;100913.47;4918305;29;20083;-84
2023/01/14 00:23:27;;;;;;;27.80;10.60;;;;;;;4.26;100.00;100910.78;4918717;29;20039;-85
2023/01/14 00:25:52;;;;;;;20.30;10.25;;;;;;;4.18;100.00;100907.88;4918918;29;20040;-83
2023/01/14 00:28:18;;;;;;;24.38;11.50;;;;;;;4.12;100.00;100898.69;4926051;29;20048;-82
2023/01/14 00:30:45;;;;;;;24.75;10.68;;;;;;;4.22;100.00;100903.25;4926876;29;20044;-82
2023/01/14 00:33:10;;;;;;;21.25;11.20;;;;;;;4.41;100.00;100914.09;4921711;29;20032;-85
2023/01/14 00:35:38;;;;;;;26.17;11.43;;;;;;;4.56;100.00;100902.44;4916410;29;20070;-82
2023/01/14 00:38:03;;;;;;;20.83;10.93;;;;;;;4.69;100.00;100905.81;4916143;29;20040;-83
2023/01/14 00:40:29;;;;;;;25.75;10.90;;;;;;;4.75;100.00;100900.09;4915988;29;20036;-84
2023/01/14 00:42:54;;;;;;;22.17;11.52;;;;;;;4.54;100.00;100914.84;4917051;29;20227;-84
2023/01/14 00:45:19;;;;;;;24.77;11.60;;;;;;;4.31;100.00;100908.66;4921566;29;20067;-84
2023/01/14 00:47:45;;;;;;;24.80;10.95;;;;;;;4.41;100.00;100901.78;4929075;29;20036;-84
2023/01/14 00:50:11;;;;;;;22.85;10.65;;;;;;;4.39;100.00;100890.56;4931548;29;20119;-83
2023/01/14 00:52:36;;;;;;;20.85;10.93;;;;;;;4.38;100.00;100899.38;4925135;29;20407;-84
2023/01/14 00:55:02;;;;;;;25.08;11.60;;;;;;;4.43;100.00;100893.81;4923186;29;20041;-85
2023/01/14 00:57:30;;;;;;;22.55;11.90;;;;;;;4.21;100.00;100893.72;4921115;29;20345;-84
2023/01/14 00:59:56;;;;;;;24.58;11.93;;;;;;;4.09;100.00;100892.81;4920203;29;20059;-83
2023/01/14 01:02:21;;;;;;;24.05;11.32;;;;;;;4.21;100.00;100884.03;4927906;29;20395;-83
2023/01/14 01:04:47;;;;;;;21.25;10.82;;;;;;;4.23;100.00;100886.56;4921182;29;20056;-85
2023/01/14 01:07:12;;;;;;;24.52;12.10;;;;;;;3.98;100.00;100884.88;4920786;29;20039;-86
2023/01/14 01:09:39;;;;;;;22.38;11.18;;;;;;;3.86;100.00;100875.31;4920425;29;20119;-83
2023/01/14 01:12:05;;;;;;;24.25;11.40;;;;;;;3.83;100.00;100880.75;4920390;29;20044;-81
2023/01/14 01:14:31;;;;;;;21.10;12.00;;;;;;;3.95;100.00;100880.72;4920753;29;20028;-84
2023/01/14 01:16:56;;;;;;;25.90;11.40;;;;;;;3.87;100.00;100877.81;4922304;29;20039;-83
2023/01/14 01:19:22;;;;;;;25.00;11.73;;;;;;;3.86;100.00;100870.91;4919981;29;20039;-83
2023/01/14 01:21:48;;;;;;;27.00;12.55;;;;;;;3.99;100.00;100874.31;4920039;29;20123;-85
2023/01/14 01:24:14;;;;;;;30.52;13.13;;;;;;;4.05;100.00;100880.88;4920205;29;20067;-85
2023/01/14 01:26:39;;;;;;;25.38;12.55;;;;;;;4.16;100.00;100897.53;4920052;29;20039;-84
2023/01/14 01:29:05;;;;;;;23.35;12.07;;;;;;;4.04;100.00;100910.69;4934615;29;20517;-83
2023/01/14 01:31:30;;;;;;;25.48;12.85;;;;;;;3.78;100.00;100919.59;4922305;29;20040;-82
2023/01/14 01:33:56;;;;;;;28.05;13.43;;;;;;;3.94;100.00;100921.00;4930888;29;20488;-84
2023/01/14 01:36:25;;;;;;;27.58;12.93;;;;;;;4.06;100.00;100921.91;4936142;29;20051;-86
2023/01/14 01:38:51;;;;;;;25.02;12.50;;;;;;;4.27;100.00;100922.13;4919566;29;20361;-85
2023/01/14 01:41:29;;;;;;;25.60;12.15;;;;;;;4.28;100.00;100932.50;4919092;29;20404;-84
2023/01/14 01:44:27;;;;;;;19.73;11.13;;;;;;;4.32;100.00;100947.06;4919833;29;20032;-85
2023/01/14 01:46:52;;;;;;;25.73;12.00;;;;;;;4.31;100.00;100940.13;4918617;29;20056;-83
2023/01/14 01:49:22;;;;;;;22.40;11.40;;;;;;;4.31;100.00;100948.00;4934291;29;20618;-82
2023/01/14 01:51:57;;;;;;;22.35;11.15;;;;;;;4.56;100.00;100947.91;4918838;29;20044;-84
2023/01/14 01:54:30;;;;;;;21.75;11.70;;;;;;;4.46;100.00;100954.78;4918105;29;20036;-84
2023/01/14 01:56:56;;;;;;;21.92;11.35;;;;;;;4.60;100.00;100964.28;4919567;29;20040;-86
2023/01/14 01:59:25;;;;;;;20.17;10.90;;;;;;;4.46;100.00;100969.69;4920577;29;20486;-84
2023/01/14 02:01:54;;;;;;;19.83;11.00;;;;;;;4.33;100.00;100966.28;4919687;29;20118;-84
2023/01/14 02:04:20;;;;;;;20.77;12.52;;;;;;;3.64;100.00;100965.97;4918965;29;20487;-83
2023/01/14 02:06:45;;;;;;;24.92;12.50;;;;;;;3.41;100.00;100964.09;4918242;29;20043;-83
2023/01/14 02:09:12;;;;;;;24.70;14.63;;;;;;;3.20;100.00;100965.56;4918991;29;20048;-83
2023/01/14 02:11:59;;;;;;;29.40;14.93;;;;;;;3.02;100.00;100946.69;4918096;29;21177;-83
2023/01/14 02:14:34;;;;;;;32.20;15.85;;;;;;;3.08;100.00;100950.69;4917905;29;20395;-85
2023/01/14 02:17:00;;;;;;;30.63;16.52;;;;;;;2.54;100.00;100936.88;4919152;29;20036;-86
2023/01/14 02:20:13;;;;;;;33.92;16.65;;;;;;;2.47;100.00;100953.91;4918066;29;20028;-84
2023/01/14 02:23:13;;;;;;;29.67;17.10;;;;;;;2.19;100.00;100931.31;4920427;29;20177;-86
2023/01/14 02:26:25;;;;;;;31.70;17.52;;;;;;;2.27;100.00;100936.91;4918645;29;20080;-86
2023/01/14 02:29:36;;;;;;;36.58;18.75;;;;;;;2.30;100.00;100935.84;4917898;29;20171;-83
2023/01/14 02:32:15;;;;;;;38.60;18.75;;;;;;;2.20;100.00;100929.53;4935559;29;20056;-84
2023/01/14 02:34:48;;;;;;;35.35;19.80;;;;;;;2.31;100.00;100933.16;4931542;29;20043;-82
2023/01/14 02:37:28;;;;;;;33.60;19.20;;;;;;;2.43;100.00;100936.72;4903488;29;20051;-85
2023/01/14 02:39:53;;;;;;;37.22;20.17;;;;;;;2.38;100.00;100950.13;4923882;29;20096;-82
2023/01/14 02:45:10;;;;;;;36.00;19.33;;;;;;;2.55;100.00;100949.84;4917679;29;20047;-84
2023/01/14 02:47:39;;;;;;;39.75;18.90;;;;;;;2.62;100.00;100946.84;4917745;29;20028;-87
2023/01/14 02:50:09;;;;;;;39.60;19.52;;;;;;;2.96;100.00;100946.25;4917275;29;20040;-83
2023/01/14 02:52:34;;;;;;;33.17;17.63;;;;;;;3.19;100.00;100952.56;4917219;29;20032;-85
2023/01/14 02:55:02;;;;;;;35.08;16.75;;;;;;;3.39;100.00;100955.50;4917377;29;20044;-84
2023/01/14 02:58:13;;;;;;;32.47;17.02;;;;;;;3.46;100.00;100955.91;4917298;29;20427;-84
2023/01/14 03:00:57;;;;;;;29.40;16.70;;;;;;;3.68;100.00;100956.06;4918755;29;20503;-85
2023/01/14 03:03:42;;;;;;;27.83;15.63;;;;;;;3.85;100.00;100958.34;4918288;29;20507;-85
2023/01/14 03:06:16;;;;;;;28.85;15.32;;;;;;;3.92;100.00;100964.84;4918078;29;20040;-83
2023/01/14 03:09:07;;;;;;;26.67;14.98;;;;;;;4.04;100.00;100957.91;4916814;29;20039;-84
2023/01/14 03:11:53;;;;;;;26.95;15.18;;;;;;;4.06;100.00;100948.13;4916580;29;20518;-84
2023/01/14 03:14:30;;;;;;;24.15;14.13;;;;;;;4.11;100.00;100948.63;4917074;29;20039;-83
2023/01/14 03:17:15;;;;;;;25.98;14.32;;;;;;;4.16;100.00;100942.13;4916967;29;20487;-84
2023/01/14 03:19:46;;;;;;;26.73;14.18;;;;;;;4.17;100.00;100942.97;4917301;29;20040;-84
2023/01/14 03:22:13;;;;;;;30.70;13.75;;;;;;;3.96;100.00;100944.47;4917300;29;20036;-85
2023/01/14 03:24:45;;;;;;;28.00;13.90;;;;;;;3.87;100.00;100939.91;4916113;29;20059;-84
2023/01/14 03:27:18;;;;;;;;;;;;;;;3.79;100.00;100948.31;4916945;29;20083;-86
2023/01/14 03:29:49;;;;;;;32.45;14.48;;;;;;;3.54;100.00;100949.19;4916194;29;19931;-84
2023/01/14 03:32:23;;;;;;;26.55;14.07;;;;;;;3.40;100.00;100951.94;4918944;29;20530;-84
2023/01/14 03:35:03;;;;;;;27.20;14.13;;;;;;;3.64;100.00;100955.47;4932940;29;20380;-82
2023/01/14 03:37:31;;;;;;;27.98;15.27;;;;;;;3.47;100.00;100957.59;4915665;29;20059;-86
2023/01/14 03:39:59;;;;;;;27.02;13.65;;;;;;;3.42;100.00;100960.50;4917795;29;20036;-84
2023/01/14 03:42:29;;;;;;;27.88;14.30;;;;;;;3.46;100.00;100966.38;4917705;29;20373;-83
2023/01/14 03:45:07;;;;;;;24.77;14.45;;;;;;;3.44;100.00;100963.88;4917697;29;20032;-85
2023/01/14 03:47:35;;;;;;;25.20;14.52;;;;;;;3.64;100.00;100976.44;4917239;29;20051;-83
2023/01/14 03:50:06;;;;;;;24.92;13.23;;;;;;;3.59;100.00;100980.31;4917471;29;20095;-85
2023/01/14 03:52:32;;;;;;;25.73;13.70;;;;;;;3.36;100.00;100960.94;4918905;29;20136;-86
2023/01/14 03:55:10;;;;;;;23.98;13.65;;;;;;;3.34;100.00;100951.53;4916006;29;20110;-87
2023/01/14 03:57:43;;;;;;;23.35;14.20;;;;;;;3.32;100.00;100959.47;4917578;29;20162;-85
2023/01/14 04:00:33;;;;;;;28.50;13.77;;;;;;;3.29;100.00;100964.91;4916150;29;20048;-85
2023/01/14 04:03:01;;;;;;;34.25;14.85;;;;;;;3.39;100.00;100970.38;4918164;29;20051;-85
2023/01/14 04:05:27;;;;;;;28.00;13.25;;;;;;;3.42;100.00;100976.22;4918197;29;20048;-84
2023/01/14 04:07:57;;;;;;;22.73;13.52;;;;;;;3.42;100.00;100981.47;4932031;29;20133;-87
2023/01/14 04:10:22;;;;;;;26.80;14.57;;;;;;;3.54;100.00;100985.88;4918387;29;20114;-86
2023/01/14 04:15:32;;;;;;;27.15;12.98;;;;;;;3.64;100.00;100975.59;4917126;29;20112;-82
2023/01/14 04:17:57;;;;;;;25.00;13.52;;;;;;;3.53;100.00;100973.72;4931250;29;20497;-84
2023/01/14 04:20:23;;;;;;;25.30;13.98;;;;;;;3.40;100.00;100978.13;4916735;29;20040;-83
2023/01/14 04:22:48;;;;;;;27.55;13.25;;;;;;;3.26;100.00;100975.59;4917249;29;20119;-87
2023/01/14 04:25:14;;;;;;;25.05;12.63;;;;;;;3.20;100.00;100983.88;4917756;29;20115;-87
2023/01/14 04:27:39;;;;;;;24.65;12.13;;;;;;;3.42;100.00;100985.88;4917556;29;20052;-83
2023/01/14 04:30:06;;;;;;;21.33;11.15;;;;;;;3.32;100.00;100992.69;4916845;29;20071;-83
2023/01/14 04:32:31;;;;;;;17.80;9.48;;;;;;;3.33;100.00;101000.44;4911902;29;20051;-84
2023/01/14 04:34:57;;;;;;;18.60;9.48;;;;;;;3.32;100.00;100993.53;4916381;29;20036;-85
2023/01/14 04:37:22;;;;;;;18.40;10.85;;;;;;;3.43;100.00;100998.88;4933799;29;20050;-85
2023/01/14 04:39:50;;;;;;;21.63;9.52;;;;;;;3.09;100.00;100986.38;4916399;29;20042;-85
2023/01/14 04:42:28;;;;;;;16.00;8.40;;;;;;;3.06;100.00;100989.22;4912229;29;20392;-85
2023/01/14 04:44:56;;;;;;;16.52;9.02;;;;;;;3.06;100.00;100986.59;4911752;29;20036;-86
2023/01/14 04:47:22;;;;;;;19.80;7.97;;;;;;;3.21;100.00;100993.44;4915831;29;20028;-83
2023/01/14 04:49:48;;;;;;;18.52;8.88;;;;;;;3.25;100.00;100991.44;4914609;29;20112;-85
2023/01/14 04:52:13;;;;;;;13.77;8.50;;;;;;;3.33;100.00;100992.59;4916194;29;20059;-85
2023/01/14 04:54:40;;;;;;;22.88;8.38;;;;;;;3.43;100.00;100998.03;4916306;29;20448;-84
2023/01/14 04:57:05;;;;;;;21.77;9.50;;;;;;;3.50;100.00;100994.06;4915184;29;20040;-85
2023/01/14 04:59:31;;;;;;;20.50;8.18;;;;;;;3.48;100.00;101004.63;4916382;29;20500;-83
2023/01/14 05:01:56;;;;;;;17.42;8.05;;;;;;;3.49;100.00;101003.69;4916321;29;20063;-84
2023/01/14 05:04:22;;;;;;;14.07;7.10;;;;;;;3.34;100.00;100994.28;4916593;29;20044;-84
2023/01/14 05:06:47;;;;;;;18.08;8.10;;;;;;;3.40;100.00;100991.22;4916289;29;20032;-80
2023/01/14 05:09:13;;;;;;;19.10;7.93;;;;;;;3.49;100.00;101003.69;4917247;29;20051;-83
2023/01/14 05:11:39;;;;;;;18.20;8.63;;;;;;;3.28;100.00;101002.53;4915229;29;20167;-88
2023/01/14 05:14:04;;;;;;;18.23;8.63;;;;;;;3.09;100.00;100989.00;4925488;29;20056;-88
2023/01/14 05:16:30;;;;;;;17.73;7.07;;;;;;;2.81;100.00;100999.66;4916585;29;20044;-87
2023/01/14 05:18:56;;;;;;;16.52;8.43;;;;;;;2.75;100.00;101000.06;4917028;29;20028;-84
2023/01/14 05:21:22;;;;;;;17.83;8.23;;;;;;;2.55;100.00;100999.53;4916601;29;20149;-87
2023/01/14 05:23:48;;;;;;;16.67;8.48;;;;;;;2.53;100.00;101004.06;4920043;29;20032;-86
2023/01/14 05:26:14;;;;;;;20.05;9.32;;;;;;;2.48;100.00;101008.75;4920171;29;20127;-86
2023/01/14 05:28:40;;;;;;;19.17;9.27;;;;;;;2.45;100.00;101023.81;4919031;29;20483;-86
2023/01/14 05:31:05;;;;;;;16.60;8.38;;;;;;;2.49;100.00;101039.19;4919218;29;20381;-88
2023/01/14 05:33:32;;;;;;;14.52;8.55;;;;;;;2.65;100.00;101044.31;4921984;29;20553;-86
2023/01/14 05:35:59;;;;;;;18.92;9.23;;;;;;;2.74;100.00;101041.06;4921381;29;20028;-87
2023/01/14 05:38:25;;;;;;;16.30;8.30;;;;;;;2.74;100.00;101061.16;4921067;29;20043;-83
2023/01/14 05:40:51;;;;;;;20.08;9.23;;;;;;;2.77;100.00;101058.34;4920989;29;20491;-85
2023/01/14 05:46:08;;;;;;;23.08;10.48;;;;;;;2.63;100.00;101042.69;4920198;29;20376;-83
2023/01/14 05:48:34;;;;;;;21.02;9.43;;;;;;;2.62;100.00;101046.28;4921924;29;20487;-85
2023/01/14 05:51:02;;;;;;;16.23;9.02;;;;;;;2.81;100.00;101038.91;4919854;29;20032;-83
2023/01/14 05:53:28;;;;;;;17.42;8.55;;;;;;;2.55;100.00;101059.72;4919824;29;20043;-85
2023/01/14 05:55:56;;;;;;;22.35;9.98;;;;;;;2.61;100.00;101066.34;4918656;29;20048;-83
2023/01/14 05:58:22;;;;;;;25.33;10.80;;;;;;;2.59;100.00;101066.44;4923328;29;20118;-85
2023/01/14 06:06:26;;;;;;;18.60;10.10;;;;;;;2.67;100.00;101083.44;4924134;29;20119;-85
2023/01/14 06:08:54;;;;;;;22.30;10.75;;;;;;;2.74;100.00;101076.88;4924685;29;20047;-84
2023/01/14 06:11:24;;;;;;;25.92;11.60;;;;;;;2.57;100.00;101085.81;4927668;29;20096;-82
2023/01/14 06:13:56;;;;;;;22.25;12.40;;;;;;;2.63;100.00;101085.41;4925101;29;20071;-84
2023/01/14 06:16:23;;;;;;;22.42;12.00;;;;;;;2.85;100.00;101092.75;4924494;29;20095;-84
2023/01/14 06:18:59;;;;;;;27.30;11.98;;;;;;;2.88;100.00;101089.91;4925342;29;20036;-86
2023/01/14 06:21:30;;;;;;;20.30;10.73;;;;;;;2.81;100.00;101094.72;4927804;29;20050;-84
2023/01/14 06:23:57;;;;;;;22.40;10.85;;;;;;;2.90;100.00;101080.19;4929636;29;20088;-86
2023/01/14 06:26:27;;;;;;;25.42;11.25;;;;;;;2.81;100.00;101075.53;4926733;29;20032;-84
2023/01/14 06:29:05;;;;;;;19.35;10.70;;;;;;;2.79;100.00;101072.16;4919514;29;20107;-87
2023/01/14 06:31:31;;;;;;;25.17;12.05;;;;;;;2.80;100.00;101063.38;4907955;29;20500;-86
2023/01/14 06:33:57;;;;;;;20.65;11.75;;;;;;;2.75;100.00;101074.13;4913566;29;20057;-82
2023/01/14 06:36:24;;;;;;;20.48;10.50;;;;;;;2.72;100.00;101074.34;4916439;29;20059;-83
2023/01/14 06:38:50;;;;;;;26.27;12.27;;;;;;;2.48;100.00;101079.38;4904881;29;20107;-84
2023/01/14 06:41:18;;;;;;;30.42;12.52;;;;;;;2.45;100.00;101082.16;4905340;29;20120;-86
2023/01/14 06:43:44;;;;;;;25.23;11.93;;;;;;;2.36;100.00;101077.53;4893060;29;20064;-85
2023/01/14 06:46:14;;;;;;;30.38;13.70;;;;;;;2.43;100.00;101091.06;4916415;29;20036;-84
2023/01/14 06:48:44;;;;;;;32.97;16.92;;;;;;;2.58;100.00;101104.03;4920025;29;20431;-82
2023/01/14 06:51:13;;;;;;;38.55;19.35;;;;;;;2.45;100.00;101118.78;4918940;29;20119;-83
2023/01/14 06:53:39;;;;;;;35.00;18.55;;;;;;;2.39;100.00;101123.56;4919090;29;20028;-84
2023/01/14 06:56:07;;;;;;;37.55;19.17;;;;;;;2.42;100.00;101121.59;4933303;29;20123;-86
2023/01/14 06:58:33;;;;;;;43.47;18.83;;;;;;;2.31;100.00;101118.84;4917090;29;20415;-85
2023/01/14 07:00:59;;;;;;;37.22;18.10;;;;;;;2.29;100.00;101119.84;4917232;29;20047;-87
2023/01/14 07:03:26;;;;;;;45.97;20.00;;;;;;;2.45;100.00;101121.41;4920020;29;20043;-89
2023/01/14 07:05:52;;;;;;;35.60;19.40;;;;;;;2.72;100.00;101120.63;4919756;29;20068;-88
2023/01/14 07:08:17;;;;;;;44.95;20.13;;;;;;;2.75;100.00;101128.28;4921773;29;20091;-88
2023/01/14 07:10:49;;;;;;;37.55;20.67;;;;;;;2.69;100.00;101124.25;4904539;29;20082;-89
2023/01/14 07:13:15;;;;;;;41.53;21.05;;;;;;;2.83;100.00;101139.09;4917279;29;20044;-87
2023/01/14 07:15:42;;;;;;;44.53;23.58;;;;;;;2.96;100.00;101119.88;4911051;29;20091;-89
2023/01/14 07:18:08;;;;;;;42.40;21.27;;;;;;;2.85;100.00;101121.53;4911294;29;20036;-88
2023/01/14 07:20:34;;;;;;;49.95;22.42;;;;;;;2.45;100.00;101121.41;4909185;29;20390;-87
2023/01/14 07:23:03;;;;;;;38.72;20.83;;;;;;;2.42;100.00;101118.97;4912127;29;20032;-89
2023/01/14 07:25:29;;;;;;;45.72;22.65;;;;;;;2.21;100.00;101117.72;4917787;29;20040;-86
2023/01/14 07:27:55;;;;;;;50.15;23.80;;;;;;;2.04;100.00;101130.97;4917034;29;20124;-87
2023/01/14 07:30:21;;;;;;;52.35;24.33;;;;;;;2.12;100.00;101131.34;4921933;29;20034;-87
2023/01/14 07:32:46;;;;;;;45.10;22.48;;;;;;;2.24;100.00;101125.38;4915330;29;20035;-88
2023/01/14 07:35:12;;;;;;;41.28;20.88;;;;;;;2.71;100.00;101121.56;4922371;29;20040;-85
2023/01/14 07:37:37;;;;;;;40.30;20.65;;;;;;;3.25;100.00;101122.41;4924433;29;20036;-88
2023/01/14 07:40:07;;;;;;;43.22;21.10;;;;;;;3.68;100.00;101133.50;4922847;29;20048;-89
2023/01/14 07:42:32;;;;;;;34.83;19.90;;;;;;;3.65;100.00;101151.09;4931839;29;20122;-88
2023/01/14 07:44:58;;;;;;;39.10;19.42;;;;;;;3.52;100.00;101165.09;4928127;29;20514;-90
2023/01/14 07:47:26;;;;;;;40.45;19.75;;;;;;;3.95;100.00;101165.69;4923244;29;20108;-87
2023/01/14 07:49:58;;;;;;;37.00;19.65;;;;;;;4.24;100.00;101169.81;4923291;29;20036;-86
2023/01/14 07:52:26;;;;;;;39.50;19.77;;;;;;;4.31;100.00;101176.28;4931383;29;20052;-88
2023/01/14 07:54:52;;;;;;;35.60;18.92;;;;;;;5.18;100.00;101189.31;4906902;29;20097;-90
2023/01/14 07:57:18;;;;;;;38.22;18.60;;;;;;;5.80;100.00;101200.44;4926561;29;20469;-87
2023/01/14 07:59:44;;;;;;;39.67;18.40;;;;;;;6.05;100.00;101202.94;4922000;29;20055;-87
2023/01/14 08:02:11;;;;;;;43.35;19.83;;;;;;;5.93;100.00;101213.56;4919425;29;20028;-86
2023/01/14 08:04:38;;;;;;;37.13;18.92;;;;;;;6.46;100.00;101210.31;4922417;29;20508;-86
2023/01/14 08:07:13;;;;;;;31.98;18.95;;;;;;;6.26;100.00;101212.81;4918274;29;20048;-86
2023/01/14 08:09:38;;;;;;;37.08;18.98;;;;;;;6.01;100.00;101201.50;4918740;29;20063;-87
2023/01/14 08:12:08;;;;;;;41.90;19.70;;;;;;;5.84;100.00;101204.53;4917662;29;20036;-85
2023/01/14 08:14:34;;;;;;;42.42;20.15;;;;;;;5.06;100.00;101195.47;4924114;29;20063;-87
2023/01/14 08:17:02;;;;;;;46.47;21.05;;;;;;;4.99;100.00;101188.97;4918551;29;20044;-88
2023/01/14 08:19:28;;;;;;;35.88;20.77;;;;;;;4.49;100.00;101185.50;4922173;29;20047;-88
2023/01/14 08:21:53;;;;;;;42.88;21.73;;;;;;;4.31;100.00;101184.16;4922290;29;20032;-88
2023/01/14 08:24:19;;;;;;;42.08;21.27;;;;;;;4.69;100.00;101189.38;4904930;29;20045;-86
2023/01/14 08:26:47;;;;;;;42.75;22.67;;;;;;;4.74;100.00;101184.63;4931704;29;20036;-91
2023/01/14 08:29:14;;;;;;;44.22;23.80;;;;;;;5.01;100.00;101181.81;4913192;29;20051;-87
2023/01/14 08:31:40;;;;;;;41.67;23.67;;;;;;;4.77;100.00;101173.06;4917504;29;20024;-85
2023/01/14 08:34:09;;;;;;;45.85;24.15;;;;;;;4.93;100.00;101173.66;5016985;23;20215;-92
2023/01/14 08:36:37;;;;;;;45.10;24.35;;;;;;;4.79;100.00;101182.50;4919525;29;20024;-91
2023/01/14 08:39:12;;;;;;;50.88;25.30;;;;;;;4.66;100.00;101179.94;4950597;28;20024;-85
2023/01/14 08:41:40;;;;;;;50.40;25.17;;;;;;;4.50;100.00;101176.69;4939497;29;20042;-85
2023/01/14 08:44:06;;;;;;;60.58;26.65;;;;;;;4.87;100.00;101185.41;4942325;29;20039;-87
2023/01/14 08:46:31;;;;;;;53.58;27.30;;;;;;;4.50;100.00;101183.72;4922752;29;20059;-87
2023/01/14 08:48:57;;;;;;;50.72;29.30;;;;;;;4.68;100.00;101193.78;4935596;29;20088;-87
2023/01/14 08:51:26;;;;;;;58.60;30.02;;;;;;;4.93;100.00;101197.28;4924100;29;20403;-89
2023/01/14 08:53:54;;;;;;;64.97;32.28;;;;;;;5.11;100.00;101215.19;4917984;29;20381;-85
2023/01/14 08:56:21;;;;;;;61.38;31.13;;;;;;;4.81;100.00;101211.28;4919023;29;20118;-86
2023/01/14 08:58:52;;;;;;;64.22;31.77;;;;;;;4.90;100.00;101216.75;4933819;29;20043;-84
2023/01/14 09:01:18;;;;;;;55.95;29.88;;;;;;;5.17;100.00;101229.69;4935974;29;20027;-88
2023/01/14 09:03:45;;;;;;;61.47;31.75;;;;;;;5.31;100.00;101231.31;4937358;29;20050;-86
2023/01/14 09:06:19;;;;;;;64.75;30.42;;;;;;;5.56;100.00;101247.84;4943496;29;20035;-84
2023/01/14 09:17:05;;;;;;;65.00;34.20;;;;;;;5.98;100.00;101272.78;4928132;29;20377;-83
2023/01/14 09:19:39;;;;;;;59.75;32.35;;;;;;;6.14;100.00;101280.34;4946312;29;20119;-88
2023/01/14 09:22:10;;;;;;;69.63;35.05;;;;;;;5.93;100.00;101287.22;4940629;29;20067;-84
2023/01/14 09:24:36;;;;;;;65.07;36.28;;;;;;;5.84;100.00;101283.44;4939494;29;20051;-85
2023/01/14 09:27:01;;;;;;;67.53;35.67;;;;;;;5.86;100.00;101283.38;4943537;29;20036;-85
2023/01/14 09:29:27;;;;;;;64.88;35.38;;;;;;;5.89;100.00;101280.50;4941596;29;20631;-84
2023/01/14 09:31:52;;;;;;;61.58;34.20;;;;;;;6.05;100.00;101291.56;4941575;29;20032;-87
2023/01/14 09:34:18;;;;;;;62.13;35.67;;;;;;;6.03;100.00;101285.59;4923751;29;20051;-82
2023/01/14 09:36:44;;;;;;;62.75;32.65;;;;;;;6.05;100.00;101281.03;4939706;29;20039;-86
2023/01/14 09:39:09;;;;;;;63.53;32.67;;;;;;;5.92;100.00;101280.28;4943319;29;20090;-85
2023/01/14 09:41:48;;;;;;;62.78;33.30;;;;;;;6.06;100.00;101282.75;4943211;29;20079;-85
2023/01/14 09:44:13;;;;;;;61.08;34.10;;;;;;;5.93;100.00;101274.09;4952365;29;20035;-83
2023/01/14 09:46:45;;;;;;;62.40;33.65;;;;;;;5.94;100.00;101276.56;4951494;29;20020;-84
2023/01/14 09:49:16;;;;;;;59.90;34.25;;;;;;;5.84;100.00;101285.22;4946517;29;20043;-87
2023/01/14 09:51:51;;;;;;;58.38;33.00;;;;;;;5.60;100.00;101277.38;4944331;29;20036;-86
2023/01/14 09:54:33;;;;;;;57.75;32.13;;;;;;;5.56;100.00;101275.91;4945128;29;20032;-87
2023/01/14 09:57:17;;;;;;;66.32;33.38;;;;;;;5.54;100.00;101281.25;4923004;29;20040;-85
2023/01/14 10:00:04;;;;;;;58.00;32.08;;;;;;;5.82;100.00;101281.88;4939475;29;20071;-86
2023/01/14 10:02:50;;;;;;;;;;;;;;;5.87;100.00;101283.25;4941157;29;20040;-87
2023/01/14 10:05:30;;;;;;;58.90;31.73;;;;;;;5.65;100.00;101283.97;4940831;29;19919;-88
2023/01/14 10:07:57;;;;;;;54.38;30.42;;;;;;;5.66;100.00;101275.13;4944498;29;20032;-82
2023/01/14 10:10:35;;;;;;;53.45;29.15;;;;;;;5.78;100.00;101265.47;4940993;29;20036;-88
2023/01/14 10:13:10;;;;;;;59.78;30.98;;;;;;;5.59;100.00;101263.38;4941288;29;20043;-85
2023/01/14 10:15:48;;;;;;;54.10;28.25;;;;;;;5.60;100.00;101249.25;4940426;29;20119;-84
2023/01/14 10:18:29;;;;;;;54.10;28.95;;;;;;;5.37;100.00;101246.66;4928084;29;20091;-89
2023/01/14 10:21:01;;;;;;;57.10;28.25;;;;;;;5.44;100.00;101251.34;4912057;29;20451;-89
2023/01/14 10:23:37;;;;;;;53.07;28.40;;;;;;;5.52;100.00;101238.47;4941592;29;20098;-84
2023/01/14 10:26:18;;;;;;;49.50;28.23;;;;;;;5.63;100.00;101235.88;4940015;29;20627;-88
2023/01/14 10:28:48;;;;;;;44.40;24.95;;;;;;;6.13;100.00;101233.97;4939726;29;20043;-86
2023/01/14 10:31:22;;;;;;;46.80;23.77;;;;;;;6.35;100.00;101231.34;4939950;29;20047;-86
2023/01/14 10:33:48;;;;;;;45.03;22.67;;;;;;;5.87;100.00;101228.00;4940279;29;20043;-83
2023/01/14 10:36:22;;;;;;;41.53;22.92;;;;;;;6.05;100.00;101234.53;4924669;29;20036;-90
2023/01/14 10:38:49;;;;;;;44.53;21.92;;;;;;;6.16;100.00;101224.00;4930059;29;20063;-85
2023/01/14 10:41:16;;;;;;;46.33;22.88;;;;;;;5.99;100.00;101223.63;4921844;29;20040;-87
2023/01/14 10:43:44;;;;;;;44.92;22.80;;;;;;;6.17;100.00;101219.59;4938013;29;20526;-84
2023/01/14 10:46:16;;;;;;;43.72;21.65;;;;;;;6.47;100.00;101219.03;4921501;29;20066;-84
2023/01/14 10:49:15;;;;;;;47.80;22.23;;;;;;;6.31;100.00;101208.00;4937963;29;20046;-87
2023/01/14 10:51:49;;;;;;;37.50;21.08;;;;;;;6.09;100.00;101201.78;4860311;29;20125;-85
2023/01/14 10:54:21;;;;;;;36.47;21.15;;;;;;;6.14;100.00;101196.13;4862493;29;20541;-85
2023/01/14 10:56:54;;;;;;;43.90;21.55;;;;;;;6.47;100.00;101197.97;4860769;29;20455;-87
2023/01/14 10:59:27;;;;;;;39.90;21.65;;;;;;;6.51;100.00;101189.72;4860736;29;20076;-82
2023/01/14 11:01:53;;;;;;;42.20;20.45;;;;;;;6.43;100.00;101191.28;4889434;29;20103;-87
2023/01/14 11:04:24;;;;;;;35.38;18.30;;;;;;;6.55;100.00;101195.59;4938139;29;20035;-83
2023/01/14 11:06:50;;;;;;;35.03;17.65;;;;;;;6.67;100.00;101194.63;4937746;29;20040;-84
2023/01/14 11:09:27;;;;;;;41.50;19.13;;;;;;;6.72;100.00;101193.31;4938119;29;20490;-83
2023/01/14 11:11:52;;;;;;;35.80;18.67;;;;;;;6.83;100.00;101194.25;4938702;29;20051;-83
2023/01/14 11:14:24;;;;;;;39.72;18.88;;;;;;;6.84;100.00;101195.91;4938796;29;20031;-85
2023/01/14 11:16:49;;;;;;;36.28;18.65;;;;;;;6.67;100.00;101200.72;4939566;29;20059;-85
2023/01/14 11:19:15;;;;;;;39.17;18.73;;;;;;;6.86;100.00;101204.56;4941377;29;20032;-83
2023/01/14 11:22:01;;;;;;;39.10;19.15;;;;;;;6.92;100.00;101178.56;4946333;29;20042;-84
2023/01/14 11:24:36;;;;;;;35.08;18.27;;;;;;;6.98;100.00;101161.41;4926752;29;20111;-84
2023/01/14 11:27:06;;;;;;;35.85;18.08;;;;;;;6.91;100.00;101160.22;4941090;29;20122;-86
2023/01/14 11:30:02;;;;;;;40.90;17.23;;;;;;;7.00;100.00;101148.94;4924741;29;20055;-83
2023/01/14 11:32:33;;;;;;;28.67;15.43;;;;;;;7.26;100.00;101155.56;4944883;29;20031;-81
2023/01/14 11:34:59;;;;;;;36.63;16.63;;;;;;;7.31;100.00;101147.28;4940772;29;20067;-81
2023/01/14 11:37:44;;;;;;;42.63;21.15;;;;;;;7.06;100.00;101143.19;4925139;29;20087;-85
2023/01/14 11:40:22;;;;;;;33.70;17.58;;;;;;;7.21;100.00;101147.19;4910306;29;20119;-85
2023/01/14 11:42:48;;;;;;;46.17;18.52;;;;;;;7.32;100.00;101134.00;4943914;29;20046;-81
2023/01/14 11:45:15;;;;;;;38.50;20.13;;;;;;;7.43;100.00;101131.28;4943674;29;20036;-85
2023/01/14 11:47:49;;;;;;;51.15;22.85;;;;;;;7.61;100.00;101128.94;4940477;29;20063;-85